createdAt,value
2019-05-16T00:00:59.118Z,16.10
2019-05-16T00:03:28.645Z,13.80
2019-05-16T00:05:58.537Z,13.53
2019-05-16T00:08:28.603Z,13.90
2019-05-16T00:10:58.317Z,13.53
2019-05-16T00:13:28.192Z,12.57
2019-05-16T00:15:58.727Z,13.87
2019-05-16T00:18:28.618Z,14.27
2019-05-16T00:20:58.596Z,14.50
2019-05-16T00:23:28.939Z,13.93
2019-05-16T00:25:58.777Z,13.57
2019-05-16T00:28:28.721Z,16.40
2019-05-16T00:30:59.200Z,13.57
2019-05-16T00:33:28.816Z,13.53
2019-05-16T00:36:03.420Z,15.93
2019-05-16T00:38:29.435Z,13.77
2019-05-16T00:40:59.193Z,13.00
2019-05-16T00:43:28.974Z,12.50
2019-05-16T00:45:58.921Z,16.63
2019-05-16T00:48:29.045Z,12.80
2019-05-16T00:50:58.665Z,15.00
2019-05-16T00:53:30.153Z,16.40
2019-05-16T00:56:00.907Z,16.13
2019-05-16T00:58:31.838Z,15.70
2019-05-16T01:01:01.228Z,16.63
2019-05-16T01:03:31.824Z,18.20
2019-05-16T01:06:01.310Z,17.60
2019-05-16T01:08:30.702Z,17.50
2019-05-16T01:11:00.391Z,15.00
2019-05-16T01:13:29.891Z,16.67
2019-05-16T01:15:59.390Z,17.00
2019-05-16T01:18:28.965Z,17.50
2019-05-16T01:20:58.728Z,18.00
2019-05-16T01:23:28.492Z,17.83
2019-05-16T01:25:58.819Z,16.63
2019-05-16T01:28:28.570Z,19.17
2019-05-16T01:30:58.296Z,19.80
2019-05-16T01:33:28.185Z,18.50
2019-05-16T01:35:58.530Z,22.10
2019-05-16T01:38:28.634Z,17.33
2019-05-16T01:40:58.589Z,17.73
2019-05-16T01:43:28.481Z,17.30
2019-05-16T01:46:00.346Z,19.73
2019-05-16T01:48:29.890Z,17.00
2019-05-16T01:50:59.456Z,19.47
2019-05-16T01:53:28.843Z,21.57
2019-05-16T01:55:58.278Z,18.90
2019-05-16T01:58:28.977Z,18.27
2019-05-16T02:01:11.625Z,19.00
2019-05-16T02:03:29.859Z,16.13
2019-05-16T02:05:59.263Z,19.23
2019-05-16T02:08:28.808Z,19.13
2019-05-16T02:10:58.618Z,19.90
2019-05-16T02:13:28.583Z,17.70
2019-05-16T02:15:59.317Z,17.57
2019-05-16T02:18:29.087Z,16.90
2019-05-16T02:21:01.308Z,16.57
2019-05-16T02:23:29.769Z,21.07
2019-05-16T02:25:59.300Z,18.07
2019-05-16T02:28:33.655Z,25.10
2019-05-16T02:31:01.202Z,18.43
2019-05-16T02:33:32.272Z,17.30
2019-05-16T02:36:02.116Z,24.07
2019-05-16T02:38:31.951Z,20.03
2019-05-16T02:41:03.214Z,19.63
2019-05-16T02:43:32.729Z,17.50
2019-05-16T02:46:02.308Z,19.57
2019-05-16T02:48:35.453Z,21.17
2019-05-16T02:51:03.014Z,21.33
2019-05-16T02:53:32.560Z,24.87
2019-05-16T02:56:02.114Z,19.33
2019-05-16T02:58:31.490Z,20.00
2019-05-16T03:01:01.908Z,19.87
2019-05-16T03:03:32.188Z,20.23
2019-05-16T03:06:02.688Z,20.93
2019-05-16T03:08:33.161Z,23.33
2019-05-16T03:11:03.292Z,24.70
2019-05-16T03:13:36.038Z,19.80
2019-05-16T03:16:11.732Z,21.00
2019-05-16T03:18:41.560Z,20.83
2019-05-16T03:21:12.430Z,20.10
2019-05-16T03:23:42.384Z,21.10
2019-05-16T03:26:12.099Z,23.13
2019-05-16T03:28:41.635Z,21.23
2019-05-16T03:31:14.798Z,21.37
2019-05-16T03:33:50.546Z,22.77
2019-05-16T03:36:15.182Z,20.30
2019-05-16T03:38:44.597Z,24.83
2019-05-16T03:41:14.089Z,21.37
2019-05-16T03:43:43.529Z,21.10
2019-05-16T03:46:12.957Z,19.03
2019-05-16T03:48:43.513Z,21.47
2019-05-16T03:51:13.030Z,19.03
2019-05-16T03:53:42.493Z,18.40
2019-05-16T03:56:11.887Z,22.37
2019-05-16T03:58:41.891Z,22.83
2019-05-16T04:01:11.841Z,20.90
2019-05-16T04:03:41.708Z,22.07
2019-05-16T04:06:12.181Z,27.20
2019-05-16T04:08:42.591Z,26.97
2019-05-16T04:11:12.115Z,24.27
2019-05-16T04:13:41.742Z,23.43
2019-05-16T04:16:12.078Z,25.40
2019-05-16T04:18:42.115Z,21.70
2019-05-16T04:21:12.282Z,31.73
2019-05-16T04:23:42.250Z,24.77
2019-05-16T04:26:12.020Z,27.60
2019-05-16T04:28:41.680Z,27.03
2019-05-16T04:31:11.387Z,30.00
2019-05-16T04:33:41.724Z,31.07
2019-05-16T04:36:11.432Z,32.60
2019-05-16T04:38:46.147Z,29.30
2019-05-16T04:41:12.095Z,31.57
2019-05-16T04:43:41.889Z,29.77
2019-05-16T04:46:12.008Z,32.30
2019-05-16T04:48:41.983Z,29.33
2019-05-16T04:51:11.438Z,31.20
2019-05-16T04:53:42.605Z,36.10
2019-05-16T04:56:12.098Z,31.70
2019-05-16T04:58:44.159Z,34.23
2019-05-16T05:01:13.708Z,36.77
2019-05-16T05:04:00.144Z,36.53
2019-05-16T05:06:14.366Z,38.07
2019-05-16T05:08:54.501Z,36.63
2019-05-16T05:11:15.105Z,36.53
2019-05-16T05:13:44.548Z,37.97
2019-05-16T05:16:13.927Z,37.97
2019-05-16T05:18:44.613Z,35.53
2019-05-16T05:21:14.531Z,39.30
2019-05-16T05:23:43.941Z,39.70
2019-05-16T05:26:13.388Z,41.00
2019-05-16T05:28:42.932Z,34.63
2019-05-16T05:31:12.471Z,37.80
2019-05-16T05:33:41.927Z,31.67
2019-05-16T05:36:12.373Z,31.70
2019-05-16T05:38:42.639Z,30.30
2019-05-16T05:41:12.075Z,31.37
2019-05-16T05:43:41.611Z,27.00
2019-05-16T05:46:11.383Z,27.40
2019-05-16T05:48:41.239Z,26.80
2019-05-16T05:51:11.273Z,27.33
2019-05-16T05:53:41.102Z,20.77
2019-05-16T05:56:11.447Z,22.20
2019-05-16T05:58:41.000Z,20.47
2019-05-16T06:01:11.107Z,31.97
2019-05-16T06:03:40.901Z,26.67
2019-05-16T06:06:10.799Z,22.60
2019-05-16T06:08:40.874Z,22.20
2019-05-16T06:11:10.534Z,17.93
2019-05-16T06:13:40.562Z,20.53
2019-05-16T06:16:10.870Z,16.23
2019-05-16T06:18:40.537Z,14.30
2019-05-16T06:21:11.537Z,17.20
2019-05-16T06:23:41.217Z,17.77
2019-05-16T06:26:12.174Z,16.43
2019-05-16T06:28:41.986Z,14.33
2019-05-16T06:31:14.078Z,15.50
2019-05-16T06:33:42.713Z,23.83
2019-05-16T06:36:12.230Z,16.17
2019-05-16T06:38:42.084Z,21.07
2019-05-16T06:41:11.564Z,17.23
2019-05-16T06:43:40.974Z,20.73
2019-05-16T06:46:10.983Z,21.60
2019-05-16T06:48:40.717Z,18.40
2019-05-16T06:51:10.729Z,16.60
2019-05-16T06:53:40.561Z,18.20
2019-05-16T06:56:10.492Z,17.23
2019-05-16T06:58:48.074Z,14.80
2019-05-16T07:01:11.142Z,13.83
2019-05-16T07:03:40.620Z,14.43
2019-05-16T07:06:26.243Z,17.90
2019-05-16T07:08:41.270Z,18.80
2019-05-16T07:11:10.746Z,18.77
2019-05-16T07:13:40.681Z,13.97
2019-05-16T07:16:10.376Z,15.33
2019-05-16T07:18:40.360Z,14.53
2019-05-16T07:21:10.918Z,14.70
2019-05-16T07:23:40.691Z,16.17
2019-05-16T07:26:10.141Z,12.37
2019-05-16T07:28:40.580Z,11.87
2019-05-16T07:31:17.695Z,22.25
2019-05-16T07:33:41.708Z,10.38
2019-05-16T07:36:11.121Z,23.77
2019-05-16T07:38:40.709Z,17.10
2019-05-16T07:41:13.670Z,14.17
2019-05-16T07:43:41.377Z,11.03
2019-05-16T07:46:11.243Z,10.67
2019-05-16T07:48:40.839Z,12.13
2019-05-16T07:51:10.647Z,12.33
2019-05-16T07:53:40.441Z,14.67
2019-05-16T07:56:10.607Z,12.87
2019-05-16T07:58:41.379Z,18.53
2019-05-16T08:01:12.641Z,10.20
2019-05-16T08:03:44.144Z,10.30
2019-05-16T08:06:13.653Z,11.80
2019-05-16T08:08:43.109Z,11.47
2019-05-16T08:11:12.637Z,11.93
2019-05-16T08:13:42.034Z,13.20
2019-05-16T08:16:11.400Z,11.70
2019-05-16T08:18:44.974Z,10.38
2019-05-16T08:21:16.759Z,12.10
2019-05-16T08:23:44.191Z,10.63
2019-05-16T08:26:13.554Z,14.03
2019-05-16T08:28:43.043Z,10.27
2019-05-16T08:31:12.540Z,16.03
2019-05-16T08:33:42.125Z,11.15
2019-05-16T08:36:12.097Z,12.73
2019-05-16T08:38:43.318Z,13.13
2019-05-16T08:41:16.913Z,16.97
2019-05-16T08:43:43.954Z,13.88
2019-05-16T08:46:13.312Z,12.68
2019-05-16T08:48:42.726Z,14.18
2019-05-16T08:51:12.486Z,13.05
2019-05-16T08:56:13.395Z,15.20
2019-05-16T08:58:42.964Z,12.50
2019-05-16T09:01:15.523Z,11.15
2019-05-16T09:03:43.474Z,15.08
2019-05-16T09:06:12.884Z,11.48
2019-05-16T09:08:42.307Z,16.20
2019-05-16T09:10:14.343Z,12.40
2019-05-16T09:11:29.194Z,14.25
2019-05-16T09:13:42.798Z,14.95
2019-05-16T09:16:12.207Z,13.45
2019-05-16T09:18:45.797Z,12.30
2019-05-16T09:21:13.250Z,11.55
2019-05-16T09:23:42.644Z,11.50
2019-05-16T09:26:15.982Z,10.68
2019-05-16T09:28:43.189Z,10.15
2019-05-16T09:31:12.552Z,12.53
2019-05-16T09:33:42.047Z,12.23
2019-05-16T09:36:11.548Z,10.95
2019-05-16T09:38:41.082Z,10.13
2019-05-16T09:41:10.557Z,12.58
2019-05-16T09:43:39.997Z,14.40
2019-05-16T09:46:09.392Z,16.57
2019-05-16T09:48:38.877Z,15.88
2019-05-16T09:51:08.590Z,20.90
2019-05-16T09:53:37.979Z,20.15
2019-05-16T09:56:07.345Z,15.72
2019-05-16T09:58:37.433Z,28.80
2019-05-16T10:01:07.146Z,17.07
2019-05-16T10:03:37.223Z,18.25
2019-05-16T10:06:08.030Z,13.70
2019-05-16T10:08:37.730Z,29.52
2019-05-16T10:11:07.630Z,16.67
2019-05-16T10:13:37.719Z,13.58
2019-05-16T10:16:07.554Z,13.13
2019-05-16T10:18:37.238Z,14.38
2019-05-16T10:21:08.092Z,14.30
2019-05-16T10:23:37.785Z,12.70
2019-05-16T10:26:07.351Z,13.65
2019-05-16T10:28:38.276Z,14.47
2019-05-16T10:31:07.925Z,13.72
2019-05-16T10:33:38.938Z,11.78
2019-05-16T10:36:08.771Z,18.98
2019-05-16T10:38:38.145Z,14.35
2019-05-16T10:41:07.573Z,15.95
2019-05-16T10:43:37.235Z,14.10
2019-05-16T10:46:06.808Z,14.87
2019-05-16T10:48:37.662Z,17.45
2019-05-16T10:51:07.938Z,15.28
2019-05-16T10:54:00.457Z,15.28
2019-05-16T10:56:09.522Z,14.10
2019-05-16T10:59:00.756Z,20.10
2019-05-16T11:01:24.313Z,15.18
2019-05-16T11:03:41.591Z,13.95
2019-05-16T11:06:24.690Z,11.70
2019-05-16T11:08:42.253Z,14.68
2019-05-16T11:11:11.728Z,14.23
2019-05-16T11:13:41.101Z,21.75
2019-05-16T11:16:10.505Z,15.95
2019-05-16T11:18:40.056Z,16.30
2019-05-16T11:21:09.528Z,14.95
2019-05-16T11:23:38.924Z,15.68
2019-05-16T11:26:08.491Z,18.87
2019-05-16T11:28:37.972Z,12.30
2019-05-16T11:31:07.883Z,16.90
2019-05-16T11:33:37.478Z,14.78
2019-05-16T11:36:09.029Z,15.10
2019-05-16T11:38:39.714Z,16.02
2019-05-16T11:41:09.185Z,18.42
2019-05-16T11:43:38.773Z,15.72
2019-05-16T11:46:08.281Z,15.32
2019-05-16T11:48:38.003Z,17.12
2019-05-16T11:51:08.046Z,15.45
2019-05-16T11:53:37.980Z,19.17
2019-05-16T11:56:08.525Z,21.77
2019-05-16T11:58:37.980Z,22.48
2019-05-16T12:01:07.852Z,19.77
2019-05-16T12:03:37.682Z,20.52
2019-05-16T12:06:10.290Z,19.37
2019-05-16T12:08:38.404Z,17.35
2019-05-16T12:11:07.889Z,17.95
2019-05-16T12:13:37.468Z,21.52
2019-05-16T12:16:07.637Z,19.00
2019-05-16T12:18:37.592Z,16.90
2019-05-16T12:21:07.828Z,17.92
2019-05-16T12:23:37.772Z,14.93
2019-05-16T12:26:07.971Z,20.72
2019-05-16T12:28:37.560Z,18.70
2019-05-16T12:31:07.337Z,15.63
2019-05-16T12:33:37.787Z,17.30
2019-05-16T12:36:07.811Z,15.50
2019-05-16T12:38:38.129Z,20.48
2019-05-16T12:41:07.681Z,20.57
2019-05-16T12:43:46.279Z,17.35
2019-05-16T12:46:08.163Z,17.65
2019-05-16T12:48:37.756Z,19.17
2019-05-16T12:51:08.400Z,23.92
2019-05-16T12:53:38.479Z,15.78
2019-05-16T12:56:07.981Z,14.87
2019-05-16T12:58:40.973Z,17.77
2019-05-16T13:01:08.515Z,16.45
2019-05-16T13:03:38.348Z,17.98
2019-05-16T13:06:07.812Z,15.03
2019-05-16T13:08:37.635Z,14.13
2019-05-16T13:11:07.527Z,15.50
2019-05-16T13:13:37.683Z,12.75
2019-05-16T13:16:07.765Z,16.85
2019-05-16T13:18:37.297Z,16.17
2019-05-16T13:21:06.985Z,16.52
2019-05-16T13:23:36.597Z,14.98
2019-05-16T13:26:07.380Z,16.85
2019-05-16T13:28:37.782Z,16.50
2019-05-16T13:31:07.947Z,18.40
2019-05-16T13:33:37.630Z,19.20
2019-05-16T13:36:07.776Z,19.15
2019-05-16T13:38:37.253Z,17.77
2019-05-16T13:41:07.613Z,15.35
2019-05-16T13:43:37.715Z,15.80
2019-05-16T13:46:07.519Z,16.57
2019-05-16T13:48:37.759Z,14.33
2019-05-16T13:51:14.671Z,17.45
2019-05-16T13:53:38.557Z,17.95
2019-05-16T13:56:13.093Z,16.70
2019-05-16T13:58:39.267Z,14.05
2019-05-16T14:01:08.820Z,16.02
2019-05-16T14:03:38.342Z,17.37
2019-05-16T14:06:07.797Z,15.13
2019-05-16T14:08:37.529Z,15.18
2019-05-16T14:11:09.792Z,19.35
2019-05-16T14:13:38.314Z,15.08
2019-05-16T14:16:07.894Z,15.75
2019-05-16T14:18:38.068Z,16.10
2019-05-16T14:21:07.753Z,13.98
2019-05-16T14:23:37.954Z,17.85
2019-05-16T14:26:07.825Z,15.88
2019-05-16T14:28:37.827Z,19.12
2019-05-16T14:31:07.636Z,18.87
2019-05-16T14:33:37.027Z,15.32
2019-05-16T14:36:07.433Z,15.23
2019-05-16T14:38:37.577Z,14.65
2019-05-16T14:41:08.170Z,14.13
2019-05-16T14:43:37.766Z,16.70
2019-05-16T14:46:09.692Z,17.25
2019-05-16T14:48:38.379Z,16.00
2019-05-16T14:51:07.882Z,15.00
2019-05-16T14:53:38.076Z,17.27
2019-05-16T14:56:07.689Z,17.00
2019-05-16T14:58:38.043Z,15.63
2019-05-16T15:01:07.709Z,17.35
2019-05-16T15:03:37.292Z,19.12
2019-05-16T15:06:08.460Z,14.70
2019-05-16T15:08:38.059Z,14.23
2019-05-16T15:11:07.766Z,14.20
2019-05-16T15:13:37.382Z,13.93
2019-05-16T15:16:07.627Z,19.23
2019-05-16T15:18:38.399Z,15.48
2019-05-16T15:21:09.021Z,19.42
2019-05-16T15:23:38.597Z,14.47
2019-05-16T15:26:09.480Z,12.15
2019-05-16T15:28:38.980Z,12.47
2019-05-16T15:31:08.361Z,15.35
2019-05-16T15:33:37.866Z,14.63
2019-05-16T15:36:08.656Z,14.68
2019-05-16T15:38:38.332Z,11.40
2019-05-16T15:41:08.517Z,15.25
2019-05-16T15:43:38.206Z,14.73
2019-05-16T15:46:08.717Z,15.80
2019-05-16T15:48:38.308Z,14.63
2019-05-16T15:51:08.970Z,13.00
2019-05-16T15:53:41.581Z,18.63
2019-05-16T15:56:10.992Z,15.07
2019-05-16T15:58:40.458Z,11.05
2019-05-16T16:01:10.018Z,11.60
2019-05-16T16:03:39.430Z,13.62
2019-05-16T16:06:08.923Z,12.53
2019-05-16T16:08:38.389Z,13.87
2019-05-16T16:11:07.878Z,10.83
2019-05-16T16:13:37.756Z,11.47
2019-05-16T16:16:09.809Z,9.10
2019-05-16T16:18:38.578Z,12.23
2019-05-16T16:21:07.960Z,9.90
2019-05-16T16:23:37.623Z,8.03
2019-05-16T16:26:07.482Z,11.50
2019-05-16T16:28:38.164Z,13.03
2019-05-16T16:31:08.101Z,7.60
2019-05-16T16:33:37.777Z,7.03
2019-05-16T16:36:07.938Z,8.90
2019-05-16T16:38:37.641Z,7.17
2019-05-16T16:41:08.031Z,8.67
2019-05-16T16:43:37.958Z,6.10
2019-05-16T16:46:12.992Z,6.03
2019-05-16T16:48:38.532Z,11.53
2019-05-16T16:51:07.915Z,7.17
2019-05-16T16:53:37.946Z,9.87
2019-05-16T16:56:07.804Z,5.50
2019-05-16T16:58:37.587Z,5.33
2019-05-16T17:01:07.954Z,7.57
2019-05-16T17:03:37.529Z,7.40
2019-05-16T17:06:07.488Z,8.60
2019-05-16T17:08:37.693Z,8.17
2019-05-16T17:11:07.868Z,7.37
2019-05-16T17:13:37.384Z,6.33
2019-05-16T17:16:21.208Z,6.97
2019-05-16T17:18:38.237Z,7.80
2019-05-16T17:21:08.145Z,5.23
2019-05-16T17:23:37.659Z,7.23
2019-05-16T17:26:07.534Z,5.73
2019-05-16T17:28:37.543Z,6.83
2019-05-16T17:31:07.441Z,4.03
2019-05-16T17:33:38.211Z,11.53
2019-05-16T17:36:09.521Z,5.43
2019-05-16T17:38:42.382Z,9.73
2019-05-16T17:41:11.786Z,8.87
2019-05-16T17:43:41.303Z,7.23
2019-05-16T17:46:10.787Z,7.10
2019-05-16T17:48:40.152Z,6.80
2019-05-16T17:51:09.540Z,6.60
2019-05-16T17:53:39.169Z,8.13
2019-05-16T17:56:08.795Z,7.43
2019-05-16T17:58:38.393Z,7.73
2019-05-16T18:01:09.301Z,8.30
2019-05-16T18:03:38.836Z,5.63
2019-05-16T18:06:08.307Z,7.50
2019-05-16T18:08:37.824Z,4.67
2019-05-16T18:11:07.433Z,5.93
2019-05-16T18:13:37.233Z,7.20
2019-05-16T18:16:07.503Z,6.37
2019-05-16T18:18:37.587Z,4.93
2019-05-16T18:21:09.445Z,9.87
2019-05-16T18:23:38.866Z,7.30
2019-05-16T18:26:08.318Z,7.50
2019-05-16T18:28:37.865Z,5.93
2019-05-16T18:31:07.478Z,4.90
2019-05-16T18:33:37.255Z,8.30
2019-05-16T18:36:07.634Z,9.03
2019-05-16T18:38:37.562Z,7.67
2019-05-16T18:41:07.841Z,6.93
2019-05-16T18:43:37.387Z,8.37
2019-05-16T18:46:07.422Z,6.03
2019-05-16T18:48:37.054Z,5.90
2019-05-16T18:51:06.835Z,9.43
2019-05-16T18:53:37.477Z,11.53
2019-05-16T18:56:07.949Z,5.03
2019-05-16T18:58:37.467Z,7.40
2019-05-16T19:01:07.075Z,6.30
2019-05-16T19:03:36.456Z,6.23
2019-05-16T19:06:07.723Z,7.40
2019-05-16T19:08:37.079Z,4.93
2019-05-16T19:11:07.621Z,11.13
2019-05-16T19:13:37.239Z,7.27
2019-05-16T19:16:06.653Z,6.33
2019-05-16T19:18:36.865Z,8.03
2019-05-16T19:21:07.542Z,6.73
2019-05-16T19:23:37.690Z,9.77
2019-05-16T19:26:07.514Z,5.80
2019-05-16T19:28:37.531Z,10.13
2019-05-16T19:31:07.404Z,6.20
2019-05-16T19:33:37.079Z,7.10
2019-05-16T19:36:07.306Z,6.70
2019-05-16T19:38:37.615Z,6.20
2019-05-16T19:41:07.983Z,5.80
2019-05-16T19:43:37.770Z,7.60
2019-05-16T19:46:07.278Z,6.50
2019-05-16T19:48:37.161Z,7.00
2019-05-16T19:51:07.501Z,7.00
2019-05-16T19:53:37.246Z,8.17
2019-05-16T19:56:07.399Z,7.53
2019-05-16T19:58:37.389Z,7.33
2019-05-16T20:01:06.941Z,7.70
2019-05-16T20:03:36.598Z,8.97
2019-05-16T20:06:07.588Z,10.10
2019-05-16T20:08:37.610Z,6.80
2019-05-16T20:11:07.331Z,9.17
2019-05-16T20:13:36.893Z,6.80
2019-05-16T20:16:06.391Z,7.53
2019-05-16T20:18:37.369Z,7.20
2019-05-16T20:21:06.932Z,8.47
2019-05-16T20:23:37.043Z,8.03
2019-05-16T20:26:07.749Z,7.10
2019-05-16T20:28:37.650Z,7.83
2019-05-16T20:31:08.006Z,8.63
2019-05-16T20:33:37.836Z,6.17
2019-05-16T20:36:09.419Z,6.30
2019-05-16T20:38:38.592Z,9.10
2019-05-16T20:41:08.209Z,7.13
2019-05-16T20:43:37.606Z,7.10
2019-05-16T20:46:07.442Z,8.50
2019-05-16T20:48:37.143Z,9.27
2019-05-16T20:51:07.230Z,11.70
2019-05-16T20:53:37.511Z,7.47
2019-05-16T20:56:07.189Z,7.50
2019-05-16T20:58:36.560Z,10.77
2019-05-16T21:01:07.067Z,9.20
2019-05-16T21:03:37.797Z,9.93
2019-05-16T21:06:08.614Z,8.27
2019-05-16T21:08:38.392Z,12.00
2019-05-16T21:11:07.777Z,8.87
2019-05-16T21:13:37.237Z,10.07
2019-05-16T21:16:07.299Z,10.47
2019-05-16T21:18:37.662Z,9.63
2019-05-16T21:21:07.806Z,10.73
2019-05-16T21:23:37.400Z,8.60
2019-05-16T21:26:06.866Z,7.77
2019-05-16T21:28:36.884Z,12.53
2019-05-16T21:31:07.448Z,9.87
2019-05-16T21:33:37.304Z,11.77
2019-05-16T21:36:07.275Z,12.73
2019-05-16T21:38:37.116Z,10.60
2019-05-16T21:41:07.219Z,12.97
2019-05-16T21:43:37.675Z,13.87
2019-05-16T21:46:07.492Z,10.37
2019-05-16T21:48:37.118Z,11.50
2019-05-16T21:51:07.935Z,11.97
2019-05-16T21:53:37.686Z,11.73
2019-05-16T21:56:07.239Z,15.33
2019-05-16T21:58:37.272Z,13.60
2019-05-16T22:01:09.162Z,11.70
2019-05-16T22:03:38.634Z,13.47
2019-05-16T22:06:08.253Z,12.50
2019-05-16T22:08:37.643Z,14.03
2019-05-16T22:11:07.138Z,10.37
2019-05-16T22:13:37.305Z,9.47
2019-05-16T22:16:08.040Z,8.87
2019-05-16T22:18:38.499Z,10.23
2019-05-16T22:21:08.299Z,6.93
2019-05-16T22:23:37.842Z,9.57
2019-05-16T22:26:07.784Z,7.73
2019-05-16T22:28:37.647Z,9.20
2019-05-16T22:31:07.609Z,9.87
2019-05-16T22:33:37.583Z,8.73
2019-05-16T22:36:07.264Z,8.57
2019-05-16T22:38:36.774Z,8.73
2019-05-16T22:41:07.326Z,6.83
2019-05-16T22:43:37.504Z,8.67
2019-05-16T22:46:10.040Z,11.47
2019-05-16T22:48:38.336Z,8.33
2019-05-16T22:51:07.829Z,10.17
2019-05-16T22:53:37.388Z,12.67
2019-05-16T22:56:07.497Z,11.77
2019-05-16T22:58:37.067Z,8.47
2019-05-16T23:01:07.002Z,10.17
2019-05-16T23:03:38.038Z,8.60
2019-05-16T23:06:08.003Z,7.80
2019-05-16T23:08:37.432Z,9.83
2019-05-16T23:11:07.431Z,12.87
2019-05-16T23:13:37.182Z,8.97
2019-05-16T23:16:06.971Z,11.57
2019-05-16T23:18:37.444Z,9.67
2019-05-16T23:21:07.139Z,9.03
2019-05-16T23:23:37.241Z,11.43
2019-05-16T23:26:07.131Z,16.27
2019-05-16T23:28:36.943Z,11.57
2019-05-16T23:31:06.421Z,11.50
2019-05-16T23:33:36.512Z,8.97
2019-05-16T23:36:07.103Z,10.60
2019-05-16T23:38:37.127Z,11.07
2019-05-16T23:41:06.840Z,13.10
2019-05-16T23:43:37.328Z,9.33
2019-05-16T23:46:07.308Z,12.17
2019-05-16T23:48:36.924Z,9.70
2019-05-16T23:51:07.755Z,11.30
2019-05-16T23:53:37.535Z,11.27
2019-05-16T23:56:07.585Z,9.60
2019-05-16T23:58:37.277Z,10.20
